sensor_id;sensor_type;location;lat;lon;timestamp;pressure;altitude;pressure_sealevel;temperature;humidity
25944;BME280;13742;49.306;8.636;2022-08-07T00:00:03;101059.86;;;21.09;34.40
25944;BME280;13742;49.306;8.636;2022-08-07T00:01:03;101062.53;;;21.13;34.49
25944;BME280;13742;49.306;8.636;2022-08-07T00:02:33;101062.64;;;21.06;34.70
25944;BME280;13742;49.306;8.636;2022-08-07T00:03:03;101060.77;;;21.11;34.42
25944;BME280;13742;49.306;8.636;2022-08-07T00:04:04;101062.56;;;21.15;34.39
25944;BME280;13742;49.306;8.636;2022-08-07T00:05:03;101060.22;;;21.16;34.62
25944;BME280;13742;49.306;8.636;2022-08-07T00:06:03;101057.92;;;21.15;34.45
25944;BME280;13742;49.306;8.636;2022-08-07T00:07:03;101054.66;;;21.17;34.41
25944;BME280;13742;49.306;8.636;2022-08-07T00:08:03;101052.98;;;21.19;34.26
25944;BME280;13742;49.306;8.636;2022-08-07T00:09:03;101051.16;;;21.14;34.64
25944;BME280;13742;49.306;8.636;2022-08-07T00:10:03;101059.48;;;21.16;34.64
25944;BME280;13742;49.306;8.636;2022-08-07T00:11:03;101053.53;;;21.18;34.70
25944;BME280;13742;49.306;8.636;2022-08-07T00:12:03;101059.13;;;20.81;35.22
25944;BME280;13742;49.306;8.636;2022-08-07T00:13:03;101059.52;;;20.90;34.53
25944;BME280;13742;49.306;8.636;2022-08-07T00:14:03;101059.47;;;20.98;34.66
25944;BME280;13742;49.306;8.636;2022-08-07T00:15:03;101060.38;;;21.03;34.82
25944;BME280;13742;49.306;8.636;2022-08-07T00:16:03;101062.08;;;21.07;34.46
25944;BME280;13742;49.306;8.636;2022-08-07T00:17:03;101059.89;;;21.06;34.57
25944;BME280;13742;49.306;8.636;2022-08-07T00:18:03;101053.98;;;21.09;34.83
25944;BME280;13742;49.306;8.636;2022-08-07T00:19:03;101056.58;;;21.10;34.61
25944;BME280;13742;49.306;8.636;2022-08-07T00:20:03;101056.03;;;21.12;34.75
25944;BME280;13742;49.306;8.636;2022-08-07T00:21:04;101054.06;;;21.15;34.59
25944;BME280;13742;49.306;8.636;2022-08-07T00:22:03;101052.88;;;21.17;34.77
25944;BME280;13742;49.306;8.636;2022-08-07T00:23:05;101048.40;;;21.16;34.67
25944;BME280;13742;49.306;8.636;2022-08-07T00:24:03;101052.80;;;21.19;34.46
25944;BME280;13742;49.306;8.636;2022-08-07T00:25:04;101049.04;;;21.19;34.36
25944;BME280;13742;49.306;8.636;2022-08-07T00:26:04;101051.98;;;21.21;34.81
25944;BME280;13742;49.306;8.636;2022-08-07T00:27:03;101046.39;;;21.22;34.73
25944;BME280;13742;49.306;8.636;2022-08-07T00:28:03;101049.50;;;21.24;34.65
25944;BME280;13742;49.306;8.636;2022-08-07T00:29:03;101051.06;;;21.25;34.49
25944;BME280;13742;49.306;8.636;2022-08-07T00:30:03;101051.33;;;21.27;34.56
25944;BME280;13742;49.306;8.636;2022-08-07T00:31:07;101046.25;;;21.26;34.84
25944;BME280;13742;49.306;8.636;2022-08-07T00:32:04;101048.48;;;21.25;34.78
25944;BME280;13742;49.306;8.636;2022-08-07T00:33:03;101043.23;;;21.24;34.74
25944;BME280;13742;49.306;8.636;2022-08-07T00:34:03;101045.15;;;21.22;34.79
25944;BME280;13742;49.306;8.636;2022-08-07T00:35:03;101046.09;;;21.23;34.72
25944;BME280;13742;49.306;8.636;2022-08-07T00:36:03;101045.44;;;21.16;34.47
25944;BME280;13742;49.306;8.636;2022-08-07T00:37:03;101043.13;;;21.16;34.44
25944;BME280;13742;49.306;8.636;2022-08-07T00:38:03;101041.67;;;21.16;34.53
25944;BME280;13742;49.306;8.636;2022-08-07T00:39:03;101048.16;;;21.16;34.75
25944;BME280;13742;49.306;8.636;2022-08-07T00:40:03;101047.47;;;21.12;34.66
25944;BME280;13742;49.306;8.636;2022-08-07T00:41:03;101048.29;;;21.16;34.68
25944;BME280;13742;49.306;8.636;2022-08-07T00:42:03;101047.34;;;21.15;35.07
25944;BME280;13742;49.306;8.636;2022-08-07T00:43:03;101047.45;;;21.15;35.01
25944;BME280;13742;49.306;8.636;2022-08-07T00:44:03;101044.80;;;21.16;34.85
25944;BME280;13742;49.306;8.636;2022-08-07T00:45:04;101046.72;;;21.16;34.88
25944;BME280;13742;49.306;8.636;2022-08-07T00:46:03;101045.02;;;20.89;35.24
25944;BME280;13742;49.306;8.636;2022-08-07T00:47:04;101044.16;;;20.85;34.97
25944;BME280;13742;49.306;8.636;2022-08-07T00:48:03;101043.54;;;20.93;34.86
25944;BME280;13742;49.306;8.636;2022-08-07T00:49:03;101042.29;;;20.97;35.18
25944;BME280;13742;49.306;8.636;2022-08-07T00:50:03;101044.23;;;20.99;35.00
25944;BME280;13742;49.306;8.636;2022-08-07T00:51:03;101044.91;;;20.88;35.01
25944;BME280;13742;49.306;8.636;2022-08-07T00:52:07;101046.09;;;20.81;35.14
25944;BME280;13742;49.306;8.636;2022-08-07T00:53:03;101041.79;;;20.88;35.05
25944;BME280;13742;49.306;8.636;2022-08-07T00:54:03;101042.16;;;20.84;35.04
25944;BME280;13742;49.306;8.636;2022-08-07T00:55:03;101044.94;;;20.79;35.17
25944;BME280;13742;49.306;8.636;2022-08-07T00:56:03;101044.34;;;20.84;34.96
25944;BME280;13742;49.306;8.636;2022-08-07T00:57:04;101043.88;;;20.84;35.23
25944;BME280;13742;49.306;8.636;2022-08-07T00:58:03;101042.63;;;20.88;35.03
25944;BME280;13742;49.306;8.636;2022-08-07T00:59:03;101041.39;;;20.59;35.52
25944;BME280;13742;49.306;8.636;2022-08-07T01:00:04;101042.85;;;20.74;35.26
25944;BME280;13742;49.306;8.636;2022-08-07T01:01:04;101042.55;;;20.78;35.61
25944;BME280;13742;49.306;8.636;2022-08-07T01:02:04;101039.89;;;20.66;35.44
25944;BME280;13742;49.306;8.636;2022-08-07T01:03:03;101042.06;;;20.75;35.37
25944;BME280;13742;49.306;8.636;2022-08-07T01:04:04;101044.63;;;20.77;35.36
25944;BME280;13742;49.306;8.636;2022-08-07T01:05:05;101045.64;;;20.80;35.13
25944;BME280;13742;49.306;8.636;2022-08-07T01:06:03;101041.03;;;20.82;35.43
25944;BME280;13742;49.306;8.636;2022-08-07T01:07:03;101042.78;;;20.83;35.80
25944;BME280;13742;49.306;8.636;2022-08-07T01:08:03;101044.11;;;20.83;35.32
25944;BME280;13742;49.306;8.636;2022-08-07T01:09:03;101042.02;;;20.65;35.46
25944;BME280;13742;49.306;8.636;2022-08-07T01:10:03;101038.58;;;20.62;35.52
25944;BME280;13742;49.306;8.636;2022-08-07T01:11:03;101041.73;;;20.66;35.42
25944;BME280;13742;49.306;8.636;2022-08-07T01:12:31;101038.63;;;20.63;35.59
25944;BME280;13742;49.306;8.636;2022-08-07T01:13:03;101042.13;;;20.57;35.65
25944;BME280;13742;49.306;8.636;2022-08-07T01:14:03;101040.62;;;20.55;35.78
25944;BME280;13742;49.306;8.636;2022-08-07T01:15:04;101039.80;;;20.63;35.80
25944;BME280;13742;49.306;8.636;2022-08-07T01:16:04;101037.88;;;20.66;35.60
25944;BME280;13742;49.306;8.636;2022-08-07T01:17:03;101039.42;;;20.69;35.83
25944;BME280;13742;49.306;8.636;2022-08-07T01:18:03;101039.73;;;20.72;35.90
25944;BME280;13742;49.306;8.636;2022-08-07T01:19:06;101043.59;;;20.73;35.96
25944;BME280;13742;49.306;8.636;2022-08-07T01:20:05;101042.52;;;20.76;35.75
25944;BME280;13742;49.306;8.636;2022-08-07T01:21:10;101045.59;;;20.77;35.62
25944;BME280;13742;49.306;8.636;2022-08-07T01:22:03;101047.17;;;20.75;35.74
25944;BME280;13742;49.306;8.636;2022-08-07T01:23:03;101043.91;;;20.59;35.96
25944;BME280;13742;49.306;8.636;2022-08-07T01:24:03;101044.94;;;20.63;35.57
25944;BME280;13742;49.306;8.636;2022-08-07T01:25:03;101041.45;;;20.67;35.87
25944;BME280;13742;49.306;8.636;2022-08-07T01:26:03;101044.63;;;20.69;35.77
25944;BME280;13742;49.306;8.636;2022-08-07T01:27:03;101041.31;;;20.72;35.53
25944;BME280;13742;49.306;8.636;2022-08-07T01:28:03;101043.64;;;20.73;35.98
25944;BME280;13742;49.306;8.636;2022-08-07T01:29:03;101045.36;;;20.75;35.76
25944;BME280;13742;49.306;8.636;2022-08-07T01:30:03;101042.17;;;20.75;35.66
25944;BME280;13742;49.306;8.636;2022-08-07T01:31:03;101046.58;;;20.78;35.59
25944;BME280;13742;49.306;8.636;2022-08-07T01:32:03;101044.80;;;20.78;35.68
25944;BME280;13742;49.306;8.636;2022-08-07T01:33:03;101045.41;;;20.76;35.73
25944;BME280;13742;49.306;8.636;2022-08-07T01:34:04;101053.37;;;20.76;35.90
25944;BME280;13742;49.306;8.636;2022-08-07T01:35:03;101047.61;;;20.75;35.81
25944;BME280;13742;49.306;8.636;2022-08-07T01:36:03;101049.03;;;20.71;35.93
25944;BME280;13742;49.306;8.636;2022-08-07T01:37:03;101051.05;;;20.72;36.04
25944;BME280;13742;49.306;8.636;2022-08-07T01:38:03;101053.88;;;20.73;35.80
25944;BME280;13742;49.306;8.636;2022-08-07T01:39:03;101051.54;;;20.73;35.83
25944;BME280;13742;49.306;8.636;2022-08-07T01:40:04;101055.66;;;20.75;35.80
25944;BME280;13742;49.306;8.636;2022-08-07T01:41:03;101053.03;;;20.74;35.86
25944;BME280;13742;49.306;8.636;2022-08-07T01:42:03;101057.43;;;20.70;36.20
25944;BME280;13742;49.306;8.636;2022-08-07T01:43:03;101059.16;;;20.55;36.37
25944;BME280;13742;49.306;8.636;2022-08-07T01:44:03;101058.86;;;20.56;36.26
25944;BME280;13742;49.306;8.636;2022-08-07T01:45:03;101057.45;;;20.46;36.26
25944;BME280;13742;49.306;8.636;2022-08-07T01:46:03;101057.25;;;20.20;36.82
25944;BME280;13742;49.306;8.636;2022-08-07T01:47:03;101061.58;;;20.14;37.03
25944;BME280;13742;49.306;8.636;2022-08-07T01:48:03;101053.77;;;20.22;36.77
25944;BME280;13742;49.306;8.636;2022-08-07T01:49:03;101054.74;;;20.28;36.43
25944;BME280;13742;49.306;8.636;2022-08-07T01:50:04;101053.57;;;20.31;36.45
25944;BME280;13742;49.306;8.636;2022-08-07T01:51:04;101050.94;;;20.30;36.83
25944;BME280;13742;49.306;8.636;2022-08-07T01:52:04;101049.70;;;20.30;37.07
25944;BME280;13742;49.306;8.636;2022-08-07T01:53:03;101048.37;;;20.32;36.54
25944;BME280;13742;49.306;8.636;2022-08-07T01:54:03;101049.19;;;20.33;36.36
25944;BME280;13742;49.306;8.636;2022-08-07T01:55:03;101047.67;;;20.35;36.27
25944;BME280;13742;49.306;8.636;2022-08-07T01:56:08;101052.18;;;20.38;36.49
25944;BME280;13742;49.306;8.636;2022-08-07T01:57:04;101046.39;;;20.36;36.37
25944;BME280;13742;49.306;8.636;2022-08-07T01:58:05;101046.79;;;20.34;36.28
25944;BME280;13742;49.306;8.636;2022-08-07T01:59:04;101046.34;;;20.35;36.20
25944;BME280;13742;49.306;8.636;2022-08-07T02:00:07;101049.30;;;20.35;36.50
25944;BME280;13742;49.306;8.636;2022-08-07T02:01:13;101049.56;;;20.37;36.38
25944;BME280;13742;49.306;8.636;2022-08-07T02:02:07;101048.45;;;20.37;36.27
25944;BME280;13742;49.306;8.636;2022-08-07T02:03:06;101044.80;;;20.38;36.36
25944;BME280;13742;49.306;8.636;2022-08-07T02:04:06;101039.70;;;20.40;36.43
25944;BME280;13742;49.306;8.636;2022-08-07T02:05:05;101039.02;;;20.41;36.34
25944;BME280;13742;49.306;8.636;2022-08-07T02:06:04;101039.59;;;20.39;36.45
25944;BME280;13742;49.306;8.636;2022-08-07T02:07:03;101035.42;;;20.33;36.52
25944;BME280;13742;49.306;8.636;2022-08-07T02:08:07;101037.58;;;20.39;36.54
25944;BME280;13742;49.306;8.636;2022-08-07T02:09:03;101036.73;;;20.41;36.38
25944;BME280;13742;49.306;8.636;2022-08-07T02:10:03;101032.75;;;20.42;36.40
25944;BME280;13742;49.306;8.636;2022-08-07T02:11:03;101036.02;;;20.42;36.76
25944;BME280;13742;49.306;8.636;2022-08-07T02:12:16;101035.67;;;20.41;36.59
25944;BME280;13742;49.306;8.636;2022-08-07T02:13:03;101032.47;;;20.43;36.43
25944;BME280;13742;49.306;8.636;2022-08-07T02:14:03;101028.56;;;20.42;36.49
25944;BME280;13742;49.306;8.636;2022-08-07T02:15:03;101031.07;;;20.43;36.76
25944;BME280;13742;49.306;8.636;2022-08-07T02:16:03;101032.72;;;20.14;37.12
25944;BME280;13742;49.306;8.636;2022-08-07T02:17:03;101028.92;;;20.17;37.25
25944;BME280;13742;49.306;8.636;2022-08-07T02:18:03;101027.59;;;20.22;37.07
25944;BME280;13742;49.306;8.636;2022-08-07T02:19:03;101030.34;;;20.22;37.01
25944;BME280;13742;49.306;8.636;2022-08-07T02:20:08;101024.66;;;20.17;37.05
25944;BME280;13742;49.306;8.636;2022-08-07T02:21:04;101023.81;;;20.20;36.90
25944;BME280;13742;49.306;8.636;2022-08-07T02:22:03;101027.68;;;20.19;37.03
25944;BME280;13742;49.306;8.636;2022-08-07T02:23:04;101028.83;;;20.22;36.93
25944;BME280;13742;49.306;8.636;2022-08-07T02:24:03;101029.04;;;20.24;36.83
25944;BME280;13742;49.306;8.636;2022-08-07T02:25:04;101027.36;;;20.24;37.06
25944;BME280;13742;49.306;8.636;2022-08-07T02:26:03;101024.86;;;20.21;37.32
25944;BME280;13742;49.306;8.636;2022-08-07T02:27:03;101029.17;;;20.24;36.92
25944;BME280;13742;49.306;8.636;2022-08-07T02:28:04;101025.41;;;20.26;36.85
25944;BME280;13742;49.306;8.636;2022-08-07T02:29:04;101028.55;;;20.00;37.62
25944;BME280;13742;49.306;8.636;2022-08-07T02:30:03;101025.09;;;19.96;37.75
25944;BME280;13742;49.306;8.636;2022-08-07T02:31:03;101027.34;;;20.04;37.49
25944;BME280;13742;49.306;8.636;2022-08-07T02:32:03;101027.92;;;19.89;37.95
25944;BME280;13742;49.306;8.636;2022-08-07T02:33:03;101029.48;;;19.52;38.64
25944;BME280;13742;49.306;8.636;2022-08-07T02:34:03;101025.44;;;19.64;38.51
25944;BME280;13742;49.306;8.636;2022-08-07T02:35:04;101028.38;;;19.35;39.16
25944;BME280;13742;49.306;8.636;2022-08-07T02:36:03;101030.58;;;19.26;39.28
25944;BME280;13742;49.306;8.636;2022-08-07T02:37:04;101032.38;;;19.21;39.35
25944;BME280;13742;49.306;8.636;2022-08-07T02:38:03;101033.03;;;19.16;39.54
25944;BME280;13742;49.306;8.636;2022-08-07T02:39:03;101026.77;;;19.33;39.01
25944;BME280;13742;49.306;8.636;2022-08-07T02:40:03;101028.26;;;19.39;39.19
25944;BME280;13742;49.306;8.636;2022-08-07T02:41:03;101028.55;;;19.44;38.93
25944;BME280;13742;49.306;8.636;2022-08-07T02:42:03;101026.59;;;19.48;38.49
25944;BME280;13742;49.306;8.636;2022-08-07T02:43:03;101030.31;;;19.53;38.86
25944;BME280;13742;49.306;8.636;2022-08-07T02:44:03;101023.71;;;19.55;39.12
25944;BME280;13742;49.306;8.636;2022-08-07T02:45:03;101025.13;;;19.50;39.39
25944;BME280;13742;49.306;8.636;2022-08-07T02:46:03;101023.89;;;19.54;39.10
25944;BME280;13742;49.306;8.636;2022-08-07T02:47:03;101020.20;;;19.57;38.80
25944;BME280;13742;49.306;8.636;2022-08-07T02:48:03;101016.78;;;19.59;38.44
25944;BME280;13742;49.306;8.636;2022-08-07T02:49:03;101019.41;;;19.62;38.98
25944;BME280;13742;49.306;8.636;2022-08-07T02:50:03;101018.67;;;19.60;39.35
25944;BME280;13742;49.306;8.636;2022-08-07T02:51:07;101014.21;;;19.30;39.71
25944;BME280;13742;49.306;8.636;2022-08-07T02:52:03;101011.20;;;19.39;39.16
25944;BME280;13742;49.306;8.636;2022-08-07T02:53:05;101012.13;;;19.47;39.14
25944;BME280;13742;49.306;8.636;2022-08-07T02:54:03;101012.40;;;19.50;39.17
25944;BME280;13742;49.306;8.636;2022-08-07T02:55:25;101013.13;;;19.53;38.94
25944;BME280;13742;49.306;8.636;2022-08-07T02:56:05;101016.47;;;19.56;39.13
25944;BME280;13742;49.306;8.636;2022-08-07T02:57:03;101016.80;;;19.59;39.06
25944;BME280;13742;49.306;8.636;2022-08-07T02:58:04;101014.33;;;19.60;39.24
25944;BME280;13742;49.306;8.636;2022-08-07T02:59:04;101013.21;;;19.61;38.81
25944;BME280;13742;49.306;8.636;2022-08-07T03:00:03;101012.99;;;19.58;39.08
25944;BME280;13742;49.306;8.636;2022-08-07T03:01:03;101014.50;;;19.62;39.09
25944;BME280;13742;49.306;8.636;2022-08-07T03:02:03;101015.33;;;19.63;39.27
25944;BME280;13742;49.306;8.636;2022-08-07T03:03:03;101013.58;;;19.65;38.99
25944;BME280;13742;49.306;8.636;2022-08-07T03:04:06;101009.50;;;19.65;38.85
25944;BME280;13742;49.306;8.636;2022-08-07T03:05:03;101007.55;;;19.65;39.15
25944;BME280;13742;49.306;8.636;2022-08-07T03:06:04;101010.98;;;19.54;39.52
25944;BME280;13742;49.306;8.636;2022-08-07T03:07:03;101013.45;;;19.50;39.34
25944;BME280;13742;49.306;8.636;2022-08-07T03:08:03;101011.04;;;19.55;38.89
25944;BME280;13742;49.306;8.636;2022-08-07T03:09:03;101012.66;;;19.58;38.86
25944;BME280;13742;49.306;8.636;2022-08-07T03:10:03;101015.11;;;19.60;39.56
25944;BME280;13742;49.306;8.636;2022-08-07T03:11:03;101012.42;;;19.57;39.38
25944;BME280;13742;49.306;8.636;2022-08-07T03:12:03;101012.38;;;19.61;38.93
25944;BME280;13742;49.306;8.636;2022-08-07T03:13:03;101010.14;;;19.62;39.45
25944;BME280;13742;49.306;8.636;2022-08-07T03:14:03;101007.06;;;19.60;38.86
25944;BME280;13742;49.306;8.636;2022-08-07T03:15:03;101006.84;;;19.61;38.91
25944;BME280;13742;49.306;8.636;2022-08-07T03:16:03;101010.01;;;19.64;38.80
25944;BME280;13742;49.306;8.636;2022-08-07T03:17:05;101005.83;;;19.66;39.12
25944;BME280;13742;49.306;8.636;2022-08-07T03:18:03;101004.20;;;19.66;39.09
25944;BME280;13742;49.306;8.636;2022-08-07T03:19:03;101004.98;;;19.67;38.81
25944;BME280;13742;49.306;8.636;2022-08-07T03:20:03;101004.80;;;19.68;39.25
25944;BME280;13742;49.306;8.636;2022-08-07T03:21:03;101003.41;;;19.67;39.25
25944;BME280;13742;49.306;8.636;2022-08-07T03:22:03;101004.36;;;19.40;39.86
25944;BME280;13742;49.306;8.636;2022-08-07T03:23:03;101006.05;;;19.47;39.35
25944;BME280;13742;49.306;8.636;2022-08-07T03:24:03;101006.64;;;19.51;39.49
25944;BME280;13742;49.306;8.636;2022-08-07T03:25:03;101009.48;;;19.54;39.64
25944;BME280;13742;49.306;8.636;2022-08-07T03:26:03;101006.13;;;19.55;39.52
25944;BME280;13742;49.306;8.636;2022-08-07T03:27:03;101005.06;;;19.57;39.39
25944;BME280;13742;49.306;8.636;2022-08-07T03:28:03;101006.02;;;19.60;39.52
25944;BME280;13742;49.306;8.636;2022-08-07T03:29:04;101005.83;;;19.59;39.53
25944;BME280;13742;49.306;8.636;2022-08-07T03:30:03;101009.59;;;19.59;39.44
25944;BME280;13742;49.306;8.636;2022-08-07T03:31:08;101008.23;;;19.60;39.73
25944;BME280;13742;49.306;8.636;2022-08-07T03:32:04;101013.05;;;19.59;39.16
25944;BME280;13742;49.306;8.636;2022-08-07T03:33:04;101012.99;;;19.58;39.21
25944;BME280;13742;49.306;8.636;2022-08-07T03:34:03;101016.29;;;19.61;39.15
25944;BME280;13742;49.306;8.636;2022-08-07T03:35:03;101013.92;;;19.62;39.04
25944;BME280;13742;49.306;8.636;2022-08-07T03:36:03;101013.02;;;19.64;39.07
25944;BME280;13742;49.306;8.636;2022-08-07T03:37:03;101016.23;;;19.63;39.29
25944;BME280;13742;49.306;8.636;2022-08-07T03:38:03;101015.82;;;19.64;39.04
25944;BME280;13742;49.306;8.636;2022-08-07T03:39:04;101019.72;;;19.67;39.42
25944;BME280;13742;49.306;8.636;2022-08-07T03:40:03;101015.55;;;19.61;39.43
25944;BME280;13742;49.306;8.636;2022-08-07T03:41:03;101019.56;;;19.62;39.42
25944;BME280;13742;49.306;8.636;2022-08-07T03:42:03;101019.00;;;19.64;39.37
25944;BME280;13742;49.306;8.636;2022-08-07T03:43:03;101018.19;;;19.57;39.23
25944;BME280;13742;49.306;8.636;2022-08-07T03:44:03;101016.94;;;19.62;38.87
25944;BME280;13742;49.306;8.636;2022-08-07T03:45:03;101020.17;;;19.64;39.17
25944;BME280;13742;49.306;8.636;2022-08-07T03:46:03;101019.72;;;19.67;39.41
25944;BME280;13742;49.306;8.636;2022-08-07T03:47:03;101022.08;;;19.67;39.27
25944;BME280;13742;49.306;8.636;2022-08-07T03:48:03;101021.08;;;19.66;39.34
25944;BME280;13742;49.306;8.636;2022-08-07T03:49:03;101022.52;;;19.68;39.20
25944;BME280;13742;49.306;8.636;2022-08-07T03:50:03;101019.22;;;19.69;39.26
25944;BME280;13742;49.306;8.636;2022-08-07T03:51:03;101022.11;;;19.69;39.00
25944;BME280;13742;49.306;8.636;2022-08-07T03:52:03;101021.01;;;19.69;39.13
25944;BME280;13742;49.306;8.636;2022-08-07T03:53:03;101021.73;;;19.69;38.78
25944;BME280;13742;49.306;8.636;2022-08-07T03:54:03;101019.61;;;19.70;38.87
25944;BME280;13742;49.306;8.636;2022-08-07T03:55:03;101018.38;;;19.72;38.84
25944;BME280;13742;49.306;8.636;2022-08-07T03:56:03;101020.10;;;19.74;38.90
25944;BME280;13742;49.306;8.636;2022-08-07T03:57:03;101016.56;;;19.75;38.84
25944;BME280;13742;49.306;8.636;2022-08-07T03:58:03;101024.34;;;19.77;39.01
25944;BME280;13742;49.306;8.636;2022-08-07T03:59:03;101022.44;;;19.77;38.68
25944;BME280;13742;49.306;8.636;2022-08-07T04:00:03;101020.48;;;19.78;38.88
25944;BME280;13742;49.306;8.636;2022-08-07T04:01:03;101021.70;;;19.79;38.99
25944;BME280;13742;49.306;8.636;2022-08-07T04:02:03;101022.05;;;19.78;38.90
25944;BME280;13742;49.306;8.636;2022-08-07T04:03:03;101024.62;;;19.79;38.90
25944;BME280;13742;49.306;8.636;2022-08-07T04:04:03;101022.27;;;19.79;39.10
25944;BME280;13742;49.306;8.636;2022-08-07T04:05:05;101023.28;;;19.79;38.95
25944;BME280;13742;49.306;8.636;2022-08-07T04:06:06;101025.73;;;19.79;38.95
25944;BME280;13742;49.306;8.636;2022-08-07T04:07:03;101025.72;;;19.81;38.72
25944;BME280;13742;49.306;8.636;2022-08-07T04:08:03;101029.01;;;19.81;39.21
25944;BME280;13742;49.306;8.636;2022-08-07T04:09:03;101023.88;;;19.81;38.88
25944;BME280;13742;49.306;8.636;2022-08-07T04:10:03;101024.62;;;19.72;39.33
25944;BME280;13742;49.306;8.636;2022-08-07T04:11:03;101027.86;;;19.74;39.25
25944;BME280;13742;49.306;8.636;2022-08-07T04:12:28;101026.02;;;19.73;39.51
25944;BME280;13742;49.306;8.636;2022-08-07T04:13:03;101022.02;;;19.73;39.09
25944;BME280;13742;49.306;8.636;2022-08-07T04:14:03;101022.89;;;19.73;39.02
25944;BME280;13742;49.306;8.636;2022-08-07T04:15:03;101021.48;;;19.73;39.42
25944;BME280;13742;49.306;8.636;2022-08-07T04:16:03;101024.95;;;19.75;39.23
25944;BME280;13742;49.306;8.636;2022-08-07T04:17:03;101022.95;;;19.74;39.09
25944;BME280;13742;49.306;8.636;2022-08-07T04:18:03;101021.89;;;19.73;39.25
25944;BME280;13742;49.306;8.636;2022-08-07T04:19:04;101024.97;;;19.71;39.18
25944;BME280;13742;49.306;8.636;2022-08-07T04:20:03;101021.60;;;19.72;39.10
25944;BME280;13742;49.306;8.636;2022-08-07T04:21:03;101025.86;;;19.72;39.72
25944;BME280;13742;49.306;8.636;2022-08-07T04:22:03;101030.00;;;19.72;39.40
25944;BME280;13742;49.306;8.636;2022-08-07T04:23:03;101029.43;;;19.71;39.34
25944;BME280;13742;49.306;8.636;2022-08-07T04:24:03;101029.31;;;19.72;39.14
25944;BME280;13742;49.306;8.636;2022-08-07T04:25:03;101031.06;;;19.73;38.93
25944;BME280;13742;49.306;8.636;2022-08-07T04:26:03;101032.95;;;19.75;39.20
25944;BME280;13742;49.306;8.636;2022-08-07T04:27:03;101031.16;;;19.76;39.31
25944;BME280;13742;49.306;8.636;2022-08-07T04:28:04;101034.23;;;19.77;39.43
25944;BME280;13742;49.306;8.636;2022-08-07T04:29:03;101032.27;;;19.78;39.09
25944;BME280;13742;49.306;8.636;2022-08-07T04:30:03;101031.20;;;19.78;39.38
25944;BME280;13742;49.306;8.636;2022-08-07T04:31:03;101029.36;;;19.78;39.37
25944;BME280;13742;49.306;8.636;2022-08-07T04:32:03;101034.50;;;19.79;39.38
25944;BME280;13742;49.306;8.636;2022-08-07T04:33:06;101034.95;;;19.79;39.14
25944;BME280;13742;49.306;8.636;2022-08-07T04:34:03;101029.98;;;19.79;39.10
25944;BME280;13742;49.306;8.636;2022-08-07T04:35:04;101033.83;;;19.79;39.90
25944;BME280;13742;49.306;8.636;2022-08-07T04:36:03;101034.63;;;19.75;39.54
25944;BME280;13742;49.306;8.636;2022-08-07T04:37:04;101034.05;;;19.75;39.76
25944;BME280;13742;49.306;8.636;2022-08-07T04:38:04;101031.83;;;19.72;39.71
25944;BME280;13742;49.306;8.636;2022-08-07T04:39:03;101033.38;;;19.59;39.87
25944;BME280;13742;49.306;8.636;2022-08-07T04:40:03;101034.37;;;19.67;39.75
25944;BME280;13742;49.306;8.636;2022-08-07T04:41:03;101035.48;;;19.68;39.93
25944;BME280;13742;49.306;8.636;2022-08-07T04:42:03;101042.24;;;19.69;39.99
25944;BME280;13742;49.306;8.636;2022-08-07T04:43:03;101046.25;;;19.65;39.96
25944;BME280;13742;49.306;8.636;2022-08-07T04:44:03;101043.75;;;19.65;39.70
25944;BME280;13742;49.306;8.636;2022-08-07T04:45:03;101051.72;;;19.67;39.85
25944;BME280;13742;49.306;8.636;2022-08-07T04:46:06;101048.11;;;19.67;39.83
25944;BME280;13742;49.306;8.636;2022-08-07T04:48:06;101048.61;;;19.69;39.81
25944;BME280;13742;49.306;8.636;2022-08-07T04:50:13;101044.86;;;19.69;39.52
25944;BME280;13742;49.306;8.636;2022-08-07T04:51:07;101041.84;;;19.68;39.48
25944;BME280;13742;49.306;8.636;2022-08-07T04:53:04;101051.17;;;19.70;39.71
25944;BME280;13742;49.306;8.636;2022-08-07T04:54:09;101054.47;;;19.70;39.78
25944;BME280;13742;49.306;8.636;2022-08-07T04:55:05;101055.81;;;19.72;39.75
25944;BME280;13742;49.306;8.636;2022-08-07T04:58:36;101061.34;;;19.59;39.94
25944;BME280;13742;49.306;8.636;2022-08-07T04:59:36;101063.92;;;19.63;39.87
25944;BME280;13742;49.306;8.636;2022-08-07T05:00:16;101062.38;;;19.48;40.22
25944;BME280;13742;49.306;8.636;2022-08-07T05:03:06;101058.23;;;19.60;40.01
25944;BME280;13742;49.306;8.636;2022-08-07T05:04:21;101059.52;;;19.61;39.91
25944;BME280;13742;49.306;8.636;2022-08-07T05:05:04;101064.64;;;19.62;40.14
25944;BME280;13742;49.306;8.636;2022-08-07T05:06:06;101067.76;;;19.66;40.03
25944;BME280;13742;49.306;8.636;2022-08-07T05:07:06;101060.72;;;19.67;39.83
25944;BME280;13742;49.306;8.636;2022-08-07T05:08:05;101064.30;;;19.68;40.13
25944;BME280;13742;49.306;8.636;2022-08-07T05:12:03;101067.84;;;19.75;39.89
25944;BME280;13742;49.306;8.636;2022-08-07T05:13:06;101065.23;;;19.77;39.89
25944;BME280;13742;49.306;8.636;2022-08-07T05:14:35;101066.35;;;19.77;40.14
25944;BME280;13742;49.306;8.636;2022-08-07T05:15:19;101066.96;;;19.79;40.03
25944;BME280;13742;49.306;8.636;2022-08-07T05:16:07;101070.86;;;19.82;39.81
25944;BME280;13742;49.306;8.636;2022-08-07T05:17:03;101069.47;;;19.84;40.14
25944;BME280;13742;49.306;8.636;2022-08-07T05:18:05;101069.69;;;19.85;39.80
25944;BME280;13742;49.306;8.636;2022-08-07T05:19:04;101072.23;;;19.89;39.97
25944;BME280;13742;49.306;8.636;2022-08-07T05:20:03;101067.55;;;19.89;40.09
25944;BME280;13742;49.306;8.636;2022-08-07T05:21:03;101071.45;;;19.91;39.74
25944;BME280;13742;49.306;8.636;2022-08-07T05:22:03;101070.77;;;19.94;39.72
25944;BME280;13742;49.306;8.636;2022-08-07T05:23:04;101070.16;;;19.96;39.89